.
WxDataArchive / Data Records for 2006-10-11
2006-10-10 October 2006 2006-10-12

Data Records for Wednesday, 11 October 2006

Time	Temp	Chill	HIndex	Humid	Dewpt	 Wind 	HiWind	WindDir	Rain 	Barom 
-----	----	-----	------	-----	-----	------	------	-------	-----	----- 
00:00	56.5	56.5	56.5	89	53.3	0	1	90	0.00	29.731 
00:05	56.5	56.5	56.5	90	53.6	0	1	90	0.00	29.731 
00:10	56.3	56.3	56.3	90	53.4	0	1	90	0.00	29.731 
00:15	56.3	56.3	56.3	91	53.7	0	0	---	0.00	29.720 
00:20	56.3	56.3	56.3	91	53.7	0	0	---	0.00	29.720 
00:25	56.3	56.3	56.3	91	53.7	0	0	---	0.00	29.720 
00:30	56.2	56.2	56.2	92	53.9	0	0	---	0.00	29.713 
00:35	56.2	56.2	56.2	92	53.9	0	1	90	0.00	29.713 
00:40	56.0	56.0	56.0	92	53.7	0	1	90	0.00	29.713 
00:45	56.2	56.2	56.2	92	53.9	0	0	---	0.00	29.713 
00:50	56.2	56.2	56.2	92	53.9	0	1	90	0.00	29.713 
00:55	56.0	56.0	56.0	92	53.7	0	0	---	0.00	29.713 
01:00	56.0	56.0	56.0	92	53.7	0	0	---	0.00	29.698 
01:05	55.9	55.9	55.9	92	53.6	0	0	---	0.00	29.698 
01:10	55.9	55.9	55.9	92	53.6	0	0	---	0.00	29.698 
01:15	55.7	55.7	55.7	93	53.7	0	1	90	0.00	29.688 
01:20	55.7	55.7	55.7	93	53.7	0	1	90	0.00	29.688 
01:25	55.7	55.7	55.7	93	53.7	0	1	90	0.00	29.688 
01:30	55.7	55.7	55.7	93	53.7	0	1	90	0.00	29.675 
01:35	55.7	55.7	55.7	93	53.7	1	1	90	0.00	29.675 
01:40	55.7	55.7	55.7	92	53.4	0	2	90	0.00	29.675 
01:45	55.6	55.6	55.6	92	53.3	0	1	90	0.00	29.665 
01:50	55.6	55.6	55.6	92	53.3	0	2	90	0.00	29.665 
01:55	55.7	55.7	55.7	92	53.4	0	1	90	0.00	29.665 
02:00	55.7	55.7	55.7	92	53.4	1	2	90	0.00	29.653 
02:05	55.7	55.7	55.7	91	53.1	0	2	90	0.00	29.653 
02:10	55.7	55.7	55.7	91	53.1	0	1	90	0.00	29.653 
02:15	55.9	55.9	55.9	91	53.3	0	2	90	0.00	29.647 
02:20	55.9	55.9	55.9	91	53.3	0	2	90	0.00	29.647 
02:25	55.9	55.9	55.9	91	53.3	0	0	---	0.00	29.647 
02:30	55.9	55.9	55.9	91	53.3	0	1	90	0.00	29.647 
02:35	55.9	55.9	55.9	91	53.3	0	1	90	0.00	29.647 
02:40	55.7	55.7	55.7	91	53.1	1	2	90	0.00	29.647 
02:45	55.7	55.7	55.7	91	53.1	0	2	90	0.00	29.628 
02:50	55.7	55.7	55.7	92	53.4	0	1	90	0.00	29.628 
02:55	55.7	55.7	55.7	92	53.4	0	1	90	0.00	29.628 
03:00	55.7	55.7	55.7	92	53.4	0	0	---	0.00	29.626 
03:05	55.7	55.7	55.7	92	53.4	0	1	90	0.00	29.626 
03:10	55.7	55.7	55.7	92	53.4	0	0	---	0.00	29.626 
03:15	55.7	55.7	55.7	92	53.4	0	0	---	0.00	29.618 
03:20	55.7	55.7	55.7	92	53.4	0	0	---	0.00	29.618 
03:25	55.7	55.7	55.7	93	53.7	0	2	90	0.00	29.618 
03:30	55.7	55.7	55.7	93	53.7	1	3	90	0.00	29.584 
03:35	55.7	55.7	55.7	93	53.7	0	2	90	0.00	29.584 
03:40	55.9	55.9	55.9	93	53.9	1	4	90	0.00	29.584 
03:45	55.9	55.9	55.9	92	53.6	1	3	90	0.00	29.585 
03:50	56.2	56.2	56.2	92	53.9	0	2	112	0.00	29.585 
03:55	56.3	56.3	56.3	92	54.0	0	2	112	0.00	29.585 
04:00	56.5	56.5	56.5	92	54.2	0	1	112	0.00	29.583 
04:05	56.6	56.6	56.6	92	54.3	0	1	112	0.00	29.583 
04:10	56.7	56.7	56.7	92	54.4	0	1	112	0.00	29.583 
04:15	56.7	56.7	56.7	92	54.4	0	1	112	0.00	29.568 
04:20	56.9	56.9	56.9	92	54.6	0	2	112	0.00	29.568 
04:25	57.0	57.0	57.0	92	54.7	0	2	112	0.00	29.568 
04:30	57.2	57.2	57.2	92	54.9	0	1	90	0.00	29.557 
04:35	57.2	57.2	57.2	92	54.9	0	0	---	0.00	29.557 
04:40	57.3	57.3	57.3	92	55.0	0	0	---	0.00	29.557 
04:45	57.5	57.5	57.5	93	55.5	0	0	---	0.00	29.551 
04:50	57.5	57.5	57.5	93	55.5	0	0	---	0.00	29.551 
04:55	57.6	57.6	57.6	93	55.6	0	0	---	0.00	29.551 
05:00	57.6	57.6	57.6	93	55.6	0	0	---	0.00	29.536 
05:05	57.8	57.8	57.8	93	55.8	0	0	---	0.00	29.536 
05:10	58.1	58.1	58.1	94	56.4	0	0	---	0.00	29.536 
05:15	58.3	58.3	58.3	94	56.6	0	1	90	0.00	29.534 
05:20	58.6	58.6	58.6	94	56.9	0	2	90	0.00	29.534 
05:25	58.9	58.9	58.9	94	57.2	0	2	90	0.04	29.534 
05:30	59.2	59.2	59.2	94	57.5	2	6	248	0.02	29.551 
05:35	59.5	59.5	59.5	94	57.8	2	9	248	0.05	29.551 
05:40	59.6	59.6	59.6	93	57.6	3	6	248	0.01	29.551 
05:45	59.6	59.6	59.6	92	57.3	3	7	270	0.00	29.527 
05:50	59.6	59.6	59.6	91	57.0	1	6	270	0.00	29.527 
05:55	59.5	59.5	59.5	91	56.9	1	5	270	0.00	29.527 
06:00	59.5	59.5	59.5	91	56.9	1	2	248	0.00	29.517 
06:05	59.3	59.3	59.3	91	56.7	1	5	248	0.00	29.517 
06:10	59.3	59.3	59.3	91	56.7	1	4	112	0.00	29.517 
06:15	59.2	59.2	59.2	92	56.9	1	3	248	0.01	29.519 
06:20	59.2	59.2	59.2	92	56.9	0	2	248	0.00	29.519 
06:25	59.2	59.2	59.2	92	56.9	1	2	270	0.00	29.519 
06:30	59.0	59.0	59.0	92	56.7	0	2	22	0.00	29.506 
06:35	59.0	59.0	59.0	92	56.7	0	1	338	0.00	29.506 
06:40	59.0	59.0	59.0	93	57.0	0	1	338	0.00	29.506 
06:45	59.0	59.0	59.0	93	57.0	0	1	338	0.00	29.501 
06:50	58.9	58.9	58.9	93	56.9	0	1	338	0.00	29.501 
06:55	58.9	58.9	58.9	94	57.2	0	1	338	0.00	29.501 
07:00	58.9	58.9	58.9	94	57.2	0	0	---	0.00	29.491 
07:05	58.9	58.9	58.9	94	57.2	0	1	338	0.00	29.491 
07:10	59.0	59.0	59.0	94	57.3	1	3	248	0.00	29.491 
07:15	59.0	59.0	59.0	93	57.0	1	5	270	0.00	29.487 
07:20	59.3	59.3	59.3	92	57.0	1	4	248	0.00	29.487 
07:25	59.5	59.5	59.5	92	57.2	1	3	248	0.00	29.487 
07:30	59.6	59.6	59.6	91	57.0	1	3	248	0.00	29.480 
07:35	59.8	59.8	59.8	91	57.2	1	4	248	0.00	29.480 
07:40	59.8	59.8	59.8	91	57.2	0	2	270	0.00	29.480 
07:45	59.9	59.9	59.9	91	57.3	1	4	248	0.00	29.474 
07:50	59.9	59.9	59.9	91	57.3	1	3	248	0.00	29.474 
07:55	60.1	60.1	60.1	92	57.8	1	4	248	0.00	29.474 
08:00	60.1	60.1	60.1	91	57.5	1	3	248	0.00	29.471 
08:05	60.2	60.2	60.2	92	57.9	1	4	248	0.00	29.471 
08:10	60.2	60.2	60.2	92	57.9	1	3	248	0.00	29.471 
08:15	60.4	60.4	60.4	92	58.1	0	4	270	0.00	29.466 
08:20	60.4	60.4	60.4	92	58.1	1	2	248	0.00	29.466 
08:25	60.4	60.4	60.4	92	58.1	0	1	248	0.00	29.466 
08:30	60.4	60.4	60.4	92	58.1	1	3	270	0.00	29.458 
08:35	60.5	60.5	60.5	92	58.2	1	2	248	0.00	29.458 
08:40	60.5	60.5	60.5	92	58.2	1	3	248	0.00	29.458 
08:45	60.5	60.5	60.5	91	57.9	1	5	248	0.00	29.455 
08:50	60.7	60.7	60.7	91	58.1	1	3	248	0.00	29.455 
08:55	60.7	60.7	60.7	91	58.1	0	2	270	0.00	29.455 
09:00	60.7	60.7	60.7	91	58.1	1	4	270	0.00	29.448 
09:05	60.9	60.9	60.9	91	58.3	2	11	270	0.00	29.448 
09:10	61.0	61.0	61.0	90	58.0	2	8	270	0.00	29.448 
09:15	61.2	61.2	61.2	90	58.2	1	4	0	0.00	29.443 
09:20	61.2	61.2	61.2	90	58.2	2	7	248	0.00	29.443 
09:25	61.2	61.2	61.2	89	57.9	2	6	248	0.01	29.443 
09:30	61.2	61.2	61.2	90	58.2	1	5	248	0.00	29.440 
09:35	61.2	61.2	61.2	91	58.5	0	2	270	0.01	29.440 
09:40	61.0	61.0	61.0	92	58.7	2	5	248	0.00	29.440 
09:45	61.0	61.0	61.0	92	58.7	2	5	248	0.00	29.427 
09:50	61.0	61.0	61.0	91	58.4	2	7	248	0.00	29.427 
09:55	61.0	61.0	61.0	91	58.4	3	9	292	0.00	29.427 
10:00	60.9	60.9	60.9	90	57.9	2	5	248	0.00	29.426 
10:05	60.9	60.9	60.9	90	57.9	3	9	270	0.00	29.426 
10:10	60.7	60.7	60.7	90	57.7	2	7	248	0.00	29.426 
10:15	60.7	60.7	60.7	90	57.7	3	10	270	0.00	29.420 
10:20	60.5	60.5	60.5	90	57.5	2	9	248	0.01	29.420 
10:25	60.5	60.5	60.5	91	57.9	2	6	248	0.00	29.420 
10:30	60.4	60.4	60.4	91	57.8	2	5	270	0.00	29.415 
10:35	60.4	60.4	60.4	92	58.1	2	10	270	0.00	29.415 
10:40	60.5	60.5	60.5	92	58.2	2	9	270	0.00	29.415 
10:45	60.7	60.7	60.7	92	58.4	1	4	270	0.00	29.411 
10:50	60.7	60.7	60.7	91	58.1	1	5	270	0.00	29.411 
10:55	60.9	60.9	60.9	90	57.9	2	7	0	0.00	29.411 
11:00	61.2	61.2	61.2	90	58.2	2	5	68	0.00	29.405 
11:05	61.3	61.3	61.3	90	58.3	2	9	292	0.00	29.405 
11:10	61.6	61.6	61.6	89	58.3	2	6	248	0.00	29.405 
11:15	61.8	61.8	61.8	88	58.2	2	7	0	0.00	29.399 
11:20	62.0	62.0	62.0	88	58.4	2	6	248	0.00	29.399 
11:25	62.3	62.3	62.3	88	58.7	3	6	270	0.00	29.399 
11:30	62.3	62.3	62.3	87	58.4	2	5	248	0.00	29.396 
11:35	62.1	62.1	62.1	88	58.5	2	10	248	0.00	29.396 
11:40	62.0	62.0	62.0	89	58.7	2	7	248	0.00	29.396 
11:45	61.8	61.8	61.8	89	58.5	2	5	270	0.00	29.389 
11:50	61.6	61.6	61.6	90	58.6	2	6	270	0.00	29.389 
11:55	61.6	61.6	61.6	90	58.6	2	7	270	0.00	29.389 
12:00	61.6	61.6	61.6	91	58.9	2	9	90	0.02	29.379 
12:05	61.5	61.5	61.5	91	58.8	4	14	270	0.00	29.379 
12:10	61.5	61.5	61.5	91	58.8	3	7	270	0.00	29.379 
12:15	61.5	61.5	61.5	91	58.8	5	14	270	0.00	29.372 
12:20	61.6	61.6	61.6	91	58.9	3	10	248	0.00	29.372 
12:25	61.6	61.6	61.6	90	58.6	3	7	248	0.00	29.372 
12:30	61.6	61.6	61.6	90	58.6	4	12	270	0.00	29.374 
12:35	61.8	61.8	61.8	88	58.2	5	17	270	0.00	29.374 
12:40	62.0	62.0	62.0	88	58.4	4	11	270	0.00	29.374 
12:45	62.1	62.1	62.1	87	58.2	4	9	270	0.00	29.367 
12:50	62.3	62.3	62.3	87	58.4	4	11	270	0.00	29.367 
12:55	62.4	62.4	62.4	86	58.2	4	9	270	0.00	29.367 
13:00	62.6	62.6	62.6	86	58.3	5	13	270	0.00	29.366 
13:05	62.9	62.9	62.9	86	58.6	3	10	248	0.00	29.366 
13:10	63.1	63.1	63.1	85	58.5	3	6	248	0.00	29.366 
13:15	63.2	63.2	63.2	85	58.6	3	9	270	0.00	29.364 
13:20	63.9	63.9	63.9	83	58.6	4	15	270	0.00	29.364 
13:25	64.3	64.3	64.3	82	58.7	4	13	248	0.00	29.364 
13:30	64.5	64.5	64.5	81	58.5	5	15	270	0.00	29.352 
13:35	64.2	64.2	64.2	81	58.2	4	13	248	0.00	29.352 
13:40	63.9	63.9	63.9	80	57.6	4	16	270	0.00	29.352 
13:45	63.5	63.5	63.5	82	57.9	5	10	270	0.01	29.357 
13:50	62.4	62.4	62.4	84	57.5	3	11	270	0.02	29.357 
13:55	61.5	61.5	61.5	88	57.9	2	5	270	0.00	29.357 
14:00	61.2	61.2	61.2	89	57.9	3	7	248	0.00	29.364 
14:05	60.9	60.9	60.9	89	57.6	4	9	248	0.00	29.364 
14:10	60.5	60.5	60.5	90	57.5	2	6	270	0.00	29.364 
14:15	60.5	60.5	60.5	91	57.9	2	5	248	0.01	29.357 
14:20	60.4	60.4	60.4	91	57.8	2	6	248	0.00	29.357 
14:25	60.4	60.4	60.4	92	58.1	1	4	248	0.00	29.357 
14:30	60.2	60.2	60.2	91	57.6	2	6	248	0.00	29.348 
14:35	60.2	60.2	60.2	92	57.9	2	4	248	0.00	29.348 
14:40	60.1	60.1	60.1	92	57.8	2	5	248	0.00	29.348 
14:45	59.3	59.3	59.3	88	55.7	3	7	270	0.00	29.354 
14:50	59.0	59.0	59.0	88	55.4	4	7	270	0.00	29.354 
14:55	58.9	58.9	58.9	89	55.7	2	5	270	0.00	29.354 
15:00	58.7	58.7	58.7	89	55.5	2	5	270	0.00	29.360 
15:05	58.7	58.7	58.7	88	55.2	2	6	248	0.00	29.360 
15:10	58.9	58.9	58.9	88	55.3	3	7	248	0.00	29.360 
15:15	59.5	59.5	59.5	89	56.3	2	5	248	0.00	29.350 
15:20	60.1	60.1	60.1	85	55.6	3	6	270	0.00	29.350 
15:25	60.1	60.1	60.1	84	55.2	3	7	270	0.00	29.350 
15:30	59.6	59.6	59.6	82	54.1	5	9	270	0.00	29.362 
15:35	59.0	59.0	59.0	81	53.2	4	7	270	0.00	29.362 
15:40	58.6	58.6	58.6	80	52.4	4	13	270	0.00	29.362 
15:45	58.4	58.4	58.4	81	52.6	4	11	270	0.00	29.364 
15:50	58.4	58.4	58.4	82	52.9	3	7	270	0.00	29.364 
15:55	58.4	58.4	58.4	83	53.3	3	7	248	0.00	29.364 
16:00	58.3	58.3	58.3	82	52.8	3	11	248	0.00	29.369 
16:05	58.1	58.1	58.1	80	52.0	4	9	270	0.00	29.369 
16:10	57.6	57.6	57.6	81	51.8	5	13	270	0.00	29.369 
16:15	57.3	57.3	57.3	81	51.5	5	12	270	0.00	29.375 
16:20	57.0	57.0	57.0	83	51.9	4	11	270	0.00	29.375 
16:25	56.9	56.9	56.9	83	51.8	4	9	270	0.00	29.375 
16:30	56.6	56.6	56.6	82	51.2	4	10	270	0.00	29.386 
16:35	56.2	56.2	56.2	82	50.8	3	7	270	0.00	29.386 
16:40	55.9	55.9	55.9	81	50.2	3	7	270	0.00	29.386 
16:45	55.6	55.6	55.6	80	49.5	4	9	270	0.00	29.386 
16:50	55.6	55.6	55.6	81	49.9	3	6	270	0.00	29.386 
16:55	55.3	55.3	55.3	80	49.2	4	11	270	0.00	29.386 
17:00	55.1	55.1	55.1	81	49.4	4	7	270	0.00	29.388 
17:05	55.1	55.1	55.1	80	49.0	4	11	270	0.00	29.388 
17:10	55.1	55.1	55.1	81	49.4	4	8	270	0.00	29.388 
17:15	55.0	55.0	55.0	81	49.3	3	5	270	0.00	29.389 
17:20	54.8	54.8	54.8	81	49.1	3	8	270	0.00	29.389 
17:25	54.8	54.8	54.8	82	49.4	3	11	270	0.00	29.389 
17:30	54.4	54.4	54.4	85	50.0	3	9	270	0.00	29.392 
17:35	53.9	53.9	53.9	87	50.1	3	5	248	0.00	29.392 
17:40	53.6	53.6	53.6	89	50.4	3	5	270	0.00	29.392 
17:45	53.2	53.2	53.2	88	49.7	3	6	270	0.00	29.409 
17:50	52.8	52.8	52.8	88	49.3	4	6	270	0.01	29.409 
17:55	51.6	51.6	51.6	81	46.0	5	12	270	0.00	29.409 
18:00	50.8	50.8	50.8	81	45.2	4	7	270	0.00	29.421 
18:05	50.7	50.7	50.7	78	44.1	3	6	270	0.00	29.421 
18:10	50.5	50.5	50.5	77	43.6	3	5	270	0.00	29.421 
18:15	50.7	50.7	50.7	78	44.1	2	5	270	0.00	29.421 
18:20	50.7	50.7	50.7	78	44.1	3	6	270	0.00	29.421 
18:25	50.7	50.7	50.7	79	44.4	2	6	248	0.00	29.421 
18:30	50.7	50.7	50.7	80	44.8	2	5	270	0.00	29.428 
18:35	50.7	50.7	50.7	80	44.8	3	7	270	0.00	29.428 
18:40	50.7	50.7	50.7	80	44.8	2	6	270	0.00	29.428 
18:45	50.5	50.5	50.5	80	44.6	2	4	248	0.00	29.436 
18:50	50.5	50.5	50.5	80	44.6	2	5	270	0.00	29.436 
18:55	50.5	50.5	50.5	80	44.6	2	5	248	0.00	29.436 
19:00	50.5	50.5	50.5	80	44.6	2	5	270	0.00	29.437 
19:05	50.4	50.4	50.4	80	44.5	2	5	270	0.00	29.437 
19:10	50.4	50.4	50.4	80	44.5	1	3	270	0.00	29.437 
19:15	50.4	50.4	50.4	80	44.5	2	3	270	0.00	29.444 
19:20	50.4	50.4	50.4	80	44.5	2	5	270	0.00	29.444 
19:25	50.2	50.2	50.2	79	43.9	2	5	292	0.00	29.444 
19:30	50.2	50.2	50.2	80	44.3	2	4	270	0.00	29.452 
19:35	50.1	50.1	50.1	80	44.2	2	4	248	0.00	29.452 
19:40	50.1	50.1	50.1	80	44.2	2	5	248	0.00	29.452 
19:45	50.1	50.1	50.1	80	44.2	2	4	248	0.00	29.455 
19:50	50.1	50.1	50.1	79	43.8	3	6	270	0.00	29.455 
19:55	50.1	50.1	50.1	79	43.8	3	6	270	0.00	29.455 
20:00	49.9	48.8	49.9	79	43.6	4	10	270	0.00	29.462 
20:05	49.8	48.6	49.8	79	43.6	4	7	270	0.00	29.462 
20:10	49.6	49.6	49.6	80	43.7	2	5	270	0.00	29.462 
20:15	49.5	49.5	49.5	79	43.3	2	7	270	0.00	29.468 
20:20	49.4	49.4	49.4	79	43.2	1	3	270	0.00	29.468 
20:25	49.2	49.2	49.2	78	42.6	3	6	270	0.00	29.468 
20:30	49.1	49.1	49.1	78	42.5	2	5	270	0.00	29.473 
20:35	49.1	49.1	49.1	79	42.9	2	5	270	0.00	29.473 
20:40	48.9	48.9	48.9	79	42.7	1	4	270	0.00	29.473 
20:45	48.8	48.8	48.8	80	42.9	1	3	248	0.00	29.481 
20:50	48.6	48.6	48.6	80	42.7	1	4	248	0.00	29.481 
20:55	48.5	48.5	48.5	80	42.6	2	5	270	0.00	29.481 
21:00	48.5	48.5	48.5	80	42.6	1	4	248	0.00	29.485 
21:05	48.5	48.5	48.5	81	42.9	1	3	248	0.00	29.485 
21:10	48.3	48.3	48.3	80	42.4	2	5	248	0.00	29.485 
21:15	48.3	48.3	48.3	77	41.4	3	8	270	0.00	29.495 
21:20	48.3	46.9	48.3	76	41.1	4	7	270	0.00	29.495 
21:25	48.2	48.2	48.2	76	41.0	3	6	270	0.00	29.495 
21:30	48.0	48.0	48.0	77	41.1	3	7	270	0.00	29.500 
21:35	47.9	47.9	47.9	77	41.0	3	5	270	0.00	29.500 
21:40	47.7	47.7	47.7	76	40.5	3	10	292	0.00	29.500 
21:45	47.6	47.6	47.6	76	40.4	3	5	270	0.00	29.507 
21:50	47.4	47.4	47.4	76	40.2	3	9	292	0.00	29.507 
21:55	47.1	47.1	47.1	76	39.9	3	6	270	0.00	29.507 
22:00	47.0	47.0	47.0	76	39.8	3	7	270	0.00	29.515 
22:05	46.5	46.5	46.5	73	38.3	2	7	270	0.00	29.515 
22:10	46.1	44.4	46.1	70	36.9	4	9	270	0.00	29.515 
22:15	45.7	45.7	45.7	71	36.8	2	7	270	0.00	29.524 
22:20	45.4	45.4	45.4	73	37.3	2	5	270	0.00	29.524 
22:25	45.2	45.2	45.2	74	37.4	1	4	270	0.00	29.524 
22:30	45.1	45.1	45.1	76	38.0	1	3	270	0.00	29.526 
22:35	44.9	44.9	44.9	77	38.1	1	3	270	0.00	29.526 
22:40	44.8	44.8	44.8	78	38.4	1	3	270	0.00	29.526 
22:45	44.8	44.8	44.8	79	38.7	1	4	270	0.00	29.529 
22:50	44.8	44.8	44.8	80	39.0	1	4	270	0.00	29.529 
22:55	44.6	42.6	44.6	76	37.5	4	9	270	0.00	29.529 
23:00	44.3	42.3	44.3	74	36.5	4	16	270	0.00	29.535 
23:05	44.1	42.1	44.1	74	36.4	4	6	270	0.00	29.535 
23:10	43.9	43.9	43.9	74	36.2	3	11	270	0.00	29.535 
23:15	43.8	43.8	43.8	75	36.4	2	5	248	0.00	29.537 
23:20	43.6	43.6	43.6	74	35.9	3	7	270	0.00	29.537 
23:25	43.5	43.5	43.5	72	35.1	3	10	270	0.00	29.537 
23:30	43.3	43.3	43.3	72	34.9	2	9	270	0.00	29.537 
23:35	43.2	43.2	43.2	73	35.1	2	5	270	0.00	29.537 
23:40	43.1	43.1	43.1	73	35.0	2	5	270	0.00	29.537 
23:45	42.9	42.9	42.9	72	34.5	2	5	270	0.00	29.543 
23:50	42.5	42.5	42.5	71	33.8	2	6	270	0.00	29.543 
23:55	41.9	41.9	41.9	69	32.5	3	7	270	0.00	29.543 

CoCoRaHS
IN-AL-39
A2 Web Hosting
Creative Commons License
GoDaddy
Look for:

loaded 2017-10-16 18:14:35 • last modified 2010-11-18 10:43:29
Privacy PolicyDisclaimer
• wx.awcolley.com is powered by PmWiki v.2002016 •
• all content (unless otherwise noted) © 2017 A W Colley